Ramer, Tennessee
Current Conditions -  °F | °C
As of 12:35 AM on Monday 26 Jan 2015 (Local Time) from KCRX Reporting Station
Overcast Overcast  
Wind Chill: 37°   Ceiling: 1300
Heat Index: 43°   Visibility: 10mi
Dew Point: 37°   Wind: 12mph
Humidity: 81%   Direction: 300°WNW
Pressure: 29.87"   Gusts: 18mph
Location:  35.07°N, 88.62°W
Report Text: KCRX 260635Z AUTO 30010G16KT 10SM OVC013 06/03 A2987 RMK AO2
Loading
Personal Weather Stations






























Interactive Weather Map New forecast layout! Learn more

10-Day Weather Forecast

Advertisements
Track Severe Weather on mobile